Station: Moomba Airport

  Atmospheric Gas Attenuation - ITU Rec 676-11   --------------- db/100km ---------------
Date Time Temp RH % AH g/m3 Dew Point Wind Direction Speed kph Gust kph Barometer mB Rainfall Since 9am 24GHz 47GHz 76GHz 122GHz 134GHz 241GHz
17 01:10 6.9 58 4.47 -0.8 7 9 1021.9 0 11.0 21.6 27.0 70.0 52.7 177.3
17 01:00 7.3 58 4.58 -0.4 9 11 1021.9 0 11.3 21.6 27.3 70.7 53.8 181.1
17 00:50 7.2 57 4.48 -0.7 9 11 1021.8 0 11.1 21.5 26.9 69.8 52.6 177.0
17 00:40 7.4 56 4.46 -0.8 7 9 1021.9 0 11.0 21.4 26.8 69.5 52.3 175.7
17 00:30 7.9 54 4.44 -0.8 9 11 1022.1 0 10.9 21.3 26.6 68.8 51.7 173.8
17 00:20 9.3 53 4.76 0.2 11 11 1022 0 11.6 21.4 27.3 70.8 54.7 184.4
17 00:10 9.7 52 4.8 0.3 11 13 1022.1 0 11.7 21.4 27.3 70.8 54.9 185.2
17 00:00 9.8 53 4.92 0.7 13 15 1022.1 0 11.9 21.6 27.7 71.9 56.3 190.0
16 23:50 9.7 52 4.8 0.3 13 15 1022 0 11.7 21.4 27.3 70.8 54.9 185.1
16 23:40 9.9 51 4.76 0.3 11 13 1022.1 0 11.6 21.3 27.1 70.2 54.3 183.0
16 23:30 10.3 51 4.89 0.6 13 15 1022.1 0 11.8 21.4 27.4 71.2 55.5 187.6
16 23:20 10.2 51 4.85 0.5 13 15 1022.1 0 11.7 21.4 27.3 70.9 55.1 186.1
16 23:10 10.3 50 4.79 0.3 13 15 1022.1 0 11.6 21.2 27.0 70.2 54.3 183.4
16 23:00 10.1 50 4.73 0.2 11 13 1022.2 0 11.5 21.2 26.9 69.8 53.8 181.3
16 22:50 10.1 51 4.82 0.4 9 13 1022.1 0 11.7 21.3 27.2 70.7 54.8 185.1
16 22:40 10.1 52 4.92 0.7 9 11 1022.3 0 11.9 21.5 27.6 71.6 56.1 189.4
16 22:30 9.6 53 4.86 0.5 9 13 1022.4 0 11.8 21.5 27.5 71.5 55.7 188.0
16 22:20 8.1 50 4.16 -1.7 9 11 1022.3 0 10.3 20.8 25.5 66.0 48.2 161.5
16 22:10 8.8 49 4.27 -1.3 9 9 1022.4 0 10.6 20.8 25.7 66.5 49.1 164.8
16 22:00 10.6 48 4.69 0.1 11 17 1022.6 0 11.4 21.0 26.6 69.0 53.0 178.6
16 21:50 10.6 48 4.69 0.1 13 13 1022.5 0 11.4 21.0 26.6 69.0 53.0 178.6
16 21:40 9.4 50 4.52 -0.5 11 13 1022.6 0 11.1 21.1 26.4 68.4 51.7 174.1
16 21:30 9 49 4.32 -1.1 9 11 1022.7 0 10.7 20.9 25.8 66.8 49.6 166.5
16 21:20 9 48 4.23 -1.4 9 11 1022.6 0 10.5 20.7 25.5 65.9 48.5 162.7
16 21:10 9.2 48 4.29 -1.2 9 11 1022.6 0 10.6 20.8 25.6 66.3 49.1 164.8
16 21:00 9.4 46 4.16 -1.6 9 13 1022.7 0 10.3 20.6 25.1 64.9 47.5 159.0
16 20:50 10.7 46 4.52 -0.4 11 13 1022.5 0 11.0 20.8 26.0 67.3 50.9 171.3
16 20:40 10.8 46 4.55 -0.3 13 13 1022.5 0 11.1 20.8 26.0 67.5 51.2 172.3
16 20:30 11 43 4.3 -1.1 11 13 1022.6 0 10.6 20.4 25.1 65.0 48.1 161.6
16 20:20 12.9 41 4.62 0 11 13 1022.5 0 11.2 20.4 25.6 66.4 50.7 170.8
16 20:10 13.1 41 4.68 0.2 15 17 1022.3 0 11.3 20.5 25.8 66.8 51.2 172.7
16 20:00 13.1 41 4.68 0.2 15 19 1022.3 0 11.3 20.5 25.8 66.8 51.2 172.7
16 19:50 13 41 4.65 0.1 15 17 1022.3 0 11.2 20.4 25.7 66.6 50.9 171.7
16 19:40 13 41 4.65 0.1 13 17 1022.3 0 11.2 20.4 25.7 66.6 50.9 171.7
16 19:30 12.7 41 4.56 -0.2 9 15 1022.4 0 11.1 20.4 25.5 66.0 50.1 168.7
16 19:20 13 40 4.54 -0.3 9 11 1022.3 0 11.0 20.3 25.3 65.6 49.7 167.3
16 19:10 12.8 40 4.48 -0.4 9 11 1022.3 0 10.9 20.2 25.2 65.2 49.1 165.3
16 19:00 13.4 40 4.65 0.1 9 11 1022.3 0 11.2 20.4 25.6 66.3 50.7 170.9
16 18:50 13.2 40 4.59 -0.1 9 9 1022.2 0 11.1 20.3 25.4 65.9 50.1 168.9
16 18:40 12.9 39 4.4 -0.7 6 7 1022.2 0 10.7 20.1 24.9 64.4 48.1 161.9
16 18:30 13.5 37 4.33 -0.9 7 11 1022.2 0 10.5 19.9 24.4 63.2 47.0 157.9
16 18:20 14.7 35 4.41 -0.6 7 9 1022 0 10.7 19.7 24.3 63.0 47.2 158.7
16 18:10 15.3 35 4.57 -0.1 11 13 1022 0 11.0 19.8 24.7 64.0 48.6 163.8
16 18:00 15.9 34 4.6 0.1 13 17 1022 0 11.0 19.7 24.6 63.8 48.6 163.8
16 17:50 16.2 33 4.55 -0.1 11 11 1021.9 0 10.9 19.6 24.4 63.1 47.8 161.3
16 17:40 16.2 33 4.55 -0.1 11 11 1021.9 0 10.9 19.6 24.4 63.1 47.8 161.3
16 17:30 16.7 32 4.55 -0.1 11 15 1021.9 0 10.9 19.5 24.2 62.7 47.6 160.3
16 17:20 17.2 31 4.54 -0.1 13 15 1021.8 0 10.9 19.4 24.0 62.3 47.2 158.9
16 17:10 17.5 31 4.62 0.2 15 17 1021.8 0 11.0 19.4 24.2 62.7 47.8 161.4
16 17:00 17.8 30 4.55 0 15 19 1021.9 0 10.9 19.3 23.9 61.9 46.9 158.2
16 16:50 17.9 29 4.43 -0.4 15 17 1021.8 0 10.6 19.1 23.5 60.8 45.6 153.5
16 16:40 18.2 29 4.51 -0.1 13 20 1021.8 0 10.8 19.1 23.7 61.3 46.3 155.9
16 16:30 18.3 29 4.53 0 17 24 1021.9 0 10.8 19.1 23.7 61.4 46.4 156.5
16 16:20 18.4 29 4.56 0.1 17 20 1021.8 0 10.9 19.2 23.8 61.5 46.7 157.4
16 16:10 18.4 28 4.4 -0.4 20 22 1021.9 0 10.5 19.0 23.3 60.2 45.0 151.4
16 16:00 18.6 27 4.3 -0.7 17 24 1022 0 10.3 18.8 22.9 59.2 43.8 147.4
16 15:50 18.6 28 4.46 -0.2 17 20 1021.9 0 10.7 19.0 23.4 60.5 45.5 153.3
16 15:40 18.7 28 4.48 -0.2 15 17 1022 0 10.7 19.0 23.4 60.6 45.7 153.9
16 15:30 18.7 28 4.48 -0.2 17 24 1022 0 10.7 19.0 23.4 60.6 45.7 153.9
16 15:20 18.9 28 4.54 0 20 22 1022 0 10.8 19.0 23.6 61.0 46.2 155.8
16 15:10 18.8 29 4.67 0.4 19 22 1022.1 0 11.1 19.2 24.0 62.2 47.6 160.8
16 15:00 18.9 28 4.54 0 19 26 1022.4 0 10.8 19.1 23.6 61.0 46.2 155.8
16 14:50 18.8 29 4.67 0.4 11 17 1022.4 0 11.1 19.2 24.0 62.2 47.7 160.9
16 14:40 18.8 28 4.51 -0.1 20 24 1022.4 0 10.8 19.0 23.5 60.9 45.9 154.9
16 14:30 18.6 29 4.62 0.2 19 30 1022.5 0 11.0 19.2 23.9 62.0 47.2 159.4
16 14:20 18.6 29 4.62 0.2 20 24 1022.5 0 11.0 19.2 23.9 62.0 47.2 159.4
16 14:10 18.7 30 4.8 0.8 19 22 1022.6 0 11.4 19.4 24.5 63.5 49.1 166.0
16 14:00 18.7 30 4.8 0.8 19 26 1022.7 0 11.4 19.4 24.5 63.5 49.1 166.0
16 13:50 18.6 29 4.62 0.2 19 24 1022.7 0 11.0 19.2 23.9 62.0 47.2 159.4
16 13:40 18.6 30 4.77 0.7 20 24 1022.7 0 11.3 19.4 24.4 63.3 48.9 165.1
16 13:30 18.1 31 4.79 0.7 22 30 1023 0 11.4 19.6 24.6 63.9 49.4 166.9
16 13:20 18.6 30 4.77 0.7 20 24 1023 0 11.3 19.4 24.4 63.3 48.9 165.1
16 13:10 18 31 4.76 0.6 17 19 1023.2 0 11.3 19.6 24.6 63.7 49.1 166.0
16 13:00 18.5 31 4.9 1.1 20 28 1023.4 0 11.6 19.6 24.9 64.5 50.3 170.3
16 12:50 18 32 4.91 1.1 19 22 1023.4 0 11.6 19.8 25.1 65.0 50.8 171.7
16 12:40 18.1 32 4.94 1.2 15 17 1023.7 0 11.7 19.8 25.2 65.2 51.0 172.7
16 12:30 17.4 32 4.74 0.6 19 24 1024 0 11.3 19.7 24.7 64.0 49.3 166.5
16 12:20 17.5 32 4.77 0.6 15 17 1024.2 0 11.3 19.7 24.8 64.2 49.6 167.5
16 12:10 17.2 33 4.83 0.8 22 24 1024.4 0 11.5 19.9 25.1 65.0 50.4 170.5
16 12:00 17.1 33 4.8 0.7 17 22 1024.6 0 11.4 19.8 25.0 64.8 50.2 169.5
16 11:50 16.6 34 4.8 0.7 19 20 1024.8 0 11.4 20.0 25.2 65.3 50.5 170.6
16 11:40 16.7 34 4.83 0.8 15 19 1025 0 11.5 20.0 25.3 65.5 50.8 171.6
16 11:30 16.5 34 4.77 0.6 15 20 1025.2 0 11.4 19.9 25.1 65.1 50.2 169.7
16 11:20 16.7 34 4.83 0.8 17 19 1025.4 0 11.5 20.0 25.3 65.5 50.8 171.6
16 11:10 16.7 36 5.12 1.6 11 15 1025.4 0 12.1 20.4 26.2 68.1 54.0 183.0
16 11:00 16 37 5.04 1.3 11 15 1025.7 0 12.0 20.4 26.2 68.0 53.6 181.4
16 10:50 15.5 39 5.16 1.6 7 9 1025.8 0 12.2 20.7 26.8 69.5 55.3 187.4
16 10:40 15 40 5.13 1.5 9 9 1025.8 0 12.2 20.8 26.8 69.7 55.3 187.3
16 10:30 14.5 42 5.22 1.8 9 11 1025.9 0 12.4 21.0 27.3 70.9 56.7 192.1
16 10:20 14.3 43 5.28 1.9 9 11 1025.9 0 12.5 21.2 27.6 71.7 57.5 195.0
16 10:10 13.7 45 5.33 2 9 9 1025.9 0 12.6 21.4 28.0 72.7 58.5 198.5
16 10:00 13.3 46 5.31 1.9 9 13 1025.8 0 12.6 21.4 28.0 72.8 58.6 198.7
16 09:50 13.1 48 5.48 2.4 9 9 1025.8 0 13.0 21.7 28.7 74.6 60.8 206.2
16 09:40 12.6 50 5.53 2.5 9 11 1025.7 0 13.1 21.9 29.1 75.6 61.7 209.6
16 09:30 11.8 52 5.47 2.3 11 15 1025.6 0 13.0 22.0 29.1 75.7 61.6 209.1
16 09:20 11.3 53 5.41 2.1 11 13 1025.4 0 12.9 22.0 29.1 75.6 61.3 207.8
16 09:10 11.1 54 5.44 2.2 11 13 1025.3 0 13.0 22.1 29.3 76.1 61.8 209.6
16 09:00 10.8 54 5.34 1.9 9 13 1025.4 0 12.8 22.1 29.0 75.4 60.8 206.1
16 08:50 10.5 56 5.43 2.1 11 13 1025.3 0 13.0 22.3 29.4 76.6 62.1 210.7
16 08:40 10.1 57 5.39 2 7 9 1025.2 0 12.9 22.3 29.4 76.5 61.9 210.0

Last Refresh: 17-Jul-2020 01:25:04

Most of the information presented on this site is sourced from the Bureau of Meteorology.  Copyright in all material sourced from the Bureau of Meteorology resides with the Commonwealth of Australia.